sensor_id;sensor_type;location;lat;lon;timestamp;temperature;humidity
31975;DHT22;18500;43.618;1.474;2024-01-16T00:00:56;11.30;99.90
31975;DHT22;18500;43.618;1.474;2024-01-16T00:03:22;11.40;99.90
31975;DHT22;18500;43.618;1.474;2024-01-16T00:05:47;11.40;99.90
31975;DHT22;18500;43.618;1.474;2024-01-16T00:08:14;11.40;99.90
31975;DHT22;18500;43.618;1.474;2024-01-16T00:10:40;11.40;99.90
31975;DHT22;18500;43.618;1.474;2024-01-16T00:13:05;11.40;99.90
31975;DHT22;18500;43.618;1.474;2024-01-16T00:15:31;11.40;99.90
31975;DHT22;18500;43.618;1.474;2024-01-16T00:17:56;11.40;1.00
31975;DHT22;18500;43.618;1.474;2024-01-16T00:20:22;11.40;1.00
31975;DHT22;18500;43.618;1.474;2024-01-16T00:22:49;11.40;1.00
31975;DHT22;18500;43.618;1.474;2024-01-16T00:25:15;11.50;1.00
31975;DHT22;18500;43.618;1.474;2024-01-16T00:27:42;11.50;1.00
31975;DHT22;18500;43.618;1.474;2024-01-16T00:30:09;11.50;1.00
31975;DHT22;18500;43.618;1.474;2024-01-16T00:32:34;11.50;1.00
31975;DHT22;18500;43.618;1.474;2024-01-16T00:35:00;11.50;1.00
31975;DHT22;18500;43.618;1.474;2024-01-16T00:37:25;11.50;1.00
31975;DHT22;18500;43.618;1.474;2024-01-16T00:39:51;11.50;1.00
31975;DHT22;18500;43.618;1.474;2024-01-16T00:42:17;11.50;1.00
31975;DHT22;18500;43.618;1.474;2024-01-16T00:44:42;11.50;1.00
31975;DHT22;18500;43.618;1.474;2024-01-16T00:47:08;11.50;1.00
31975;DHT22;18500;43.618;1.474;2024-01-16T00:49:35;11.60;1.00
31975;DHT22;18500;43.618;1.474;2024-01-16T00:52:01;11.60;1.00
31975;DHT22;18500;43.618;1.474;2024-01-16T00:54:26;11.60;1.00
31975;DHT22;18500;43.618;1.474;2024-01-16T00:56:52;11.70;1.00
31975;DHT22;18500;43.618;1.474;2024-01-16T00:59:21;11.70;99.90
31975;DHT22;18500;43.618;1.474;2024-01-16T01:01:46;11.70;99.90
31975;DHT22;18500;43.618;1.474;2024-01-16T01:04:12;11.70;99.90
31975;DHT22;18500;43.618;1.474;2024-01-16T01:06:37;11.60;99.90
31975;DHT22;18500;43.618;1.474;2024-01-16T01:09:04;11.70;99.90
31975;DHT22;18500;43.618;1.474;2024-01-16T01:11:29;11.70;99.90
31975;DHT22;18500;43.618;1.474;2024-01-16T01:13:55;11.80;99.90
31975;DHT22;18500;43.618;1.474;2024-01-16T01:16:21;11.80;99.90
31975;DHT22;18500;43.618;1.474;2024-01-16T01:18:46;11.80;99.90
31975;DHT22;18500;43.618;1.474;2024-01-16T01:21:12;11.80;99.90
31975;DHT22;18500;43.618;1.474;2024-01-16T01:23:38;11.80;99.90
31975;DHT22;18500;43.618;1.474;2024-01-16T01:26:03;11.80;99.90
31975;DHT22;18500;43.618;1.474;2024-01-16T01:28:30;11.70;99.90
31975;DHT22;18500;43.618;1.474;2024-01-16T01:30:56;11.90;99.90
31975;DHT22;18500;43.618;1.474;2024-01-16T01:33:21;12.00;99.90
31975;DHT22;18500;43.618;1.474;2024-01-16T01:35:47;12.00;99.90
31975;DHT22;18500;43.618;1.474;2024-01-16T01:38:13;12.00;99.90
31975;DHT22;18500;43.618;1.474;2024-01-16T01:40:38;12.00;99.90
31975;DHT22;18500;43.618;1.474;2024-01-16T01:43:19;12.00;99.90
31975;DHT22;18500;43.618;1.474;2024-01-16T01:48:13;12.00;99.90
31975;DHT22;18500;43.618;1.474;2024-01-16T01:50:39;12.10;99.90
31975;DHT22;18500;43.618;1.474;2024-01-16T01:53:05;12.00;99.90
31975;DHT22;18500;43.618;1.474;2024-01-16T01:55:31;12.00;99.90
31975;DHT22;18500;43.618;1.474;2024-01-16T01:57:56;12.00;99.90
31975;DHT22;18500;43.618;1.474;2024-01-16T02:00:22;12.00;99.90
31975;DHT22;18500;43.618;1.474;2024-01-16T02:02:49;11.90;99.90
31975;DHT22;18500;43.618;1.474;2024-01-16T02:05:15;11.90;99.90
31975;DHT22;18500;43.618;1.474;2024-01-16T02:07:40;11.90;99.90
31975;DHT22;18500;43.618;1.474;2024-01-16T02:10:06;11.90;99.90
31975;DHT22;18500;43.618;1.474;2024-01-16T02:12:32;11.80;99.90
31975;DHT22;18500;43.618;1.474;2024-01-16T02:14:58;11.80;99.90
31975;DHT22;18500;43.618;1.474;2024-01-16T02:17:23;11.80;99.90
31975;DHT22;18500;43.618;1.474;2024-01-16T02:19:49;11.70;99.90
31975;DHT22;18500;43.618;1.474;2024-01-16T02:22:19;11.80;99.90
31975;DHT22;18500;43.618;1.474;2024-01-16T02:24:46;11.90;99.90
31975;DHT22;18500;43.618;1.474;2024-01-16T02:27:12;11.90;99.90
31975;DHT22;18500;43.618;1.474;2024-01-16T02:29:44;11.90;99.90
31975;DHT22;18500;43.618;1.474;2024-01-16T02:32:12;11.90;99.90
31975;DHT22;18500;43.618;1.474;2024-01-16T02:34:38;11.80;99.90
31975;DHT22;18500;43.618;1.474;2024-01-16T02:37:04;11.80;99.90
31975;DHT22;18500;43.618;1.474;2024-01-16T02:39:29;11.80;99.90
31975;DHT22;18500;43.618;1.474;2024-01-16T02:41:56;11.90;99.90
31975;DHT22;18500;43.618;1.474;2024-01-16T02:44:22;11.90;99.90
31975;DHT22;18500;43.618;1.474;2024-01-16T02:46:47;11.90;99.90
31975;DHT22;18500;43.618;1.474;2024-01-16T02:49:13;11.80;99.90
31975;DHT22;18500;43.618;1.474;2024-01-16T02:51:38;11.80;99.90
31975;DHT22;18500;43.618;1.474;2024-01-16T02:54:06;11.80;99.90
31975;DHT22;18500;43.618;1.474;2024-01-16T02:56:31;11.80;99.90
31975;DHT22;18500;43.618;1.474;2024-01-16T02:58:57;11.80;99.90
31975;DHT22;18500;43.618;1.474;2024-01-16T03:01:23;11.70;99.90
31975;DHT22;18500;43.618;1.474;2024-01-16T03:03:48;11.80;99.90
31975;DHT22;18500;43.618;1.474;2024-01-16T03:06:24;11.80;99.90
31975;DHT22;18500;43.618;1.474;2024-01-16T03:08:50;11.80;99.90
31975;DHT22;18500;43.618;1.474;2024-01-16T03:11:16;11.80;99.90
31975;DHT22;18500;43.618;1.474;2024-01-16T03:13:42;11.80;99.90
31975;DHT22;18500;43.618;1.474;2024-01-16T03:16:11;11.80;99.90
31975;DHT22;18500;43.618;1.474;2024-01-16T03:18:38;11.70;99.90
31975;DHT22;18500;43.618;1.474;2024-01-16T03:21:05;11.60;99.90
31975;DHT22;18500;43.618;1.474;2024-01-16T03:23:31;11.60;99.90
31975;DHT22;18500;43.618;1.474;2024-01-16T03:25:57;11.60;99.90
31975;DHT22;18500;43.618;1.474;2024-01-16T03:28:23;11.60;99.90
31975;DHT22;18500;43.618;1.474;2024-01-16T03:30:49;11.60;99.90
31975;DHT22;18500;43.618;1.474;2024-01-16T03:33:14;11.60;99.90
31975;DHT22;18500;43.618;1.474;2024-01-16T03:35:40;11.50;99.90
31975;DHT22;18500;43.618;1.474;2024-01-16T03:38:06;11.50;99.90
31975;DHT22;18500;43.618;1.474;2024-01-16T03:40:31;11.60;99.90
31975;DHT22;18500;43.618;1.474;2024-01-16T03:43:00;11.60;99.90
31975;DHT22;18500;43.618;1.474;2024-01-16T03:45:26;11.60;99.90
31975;DHT22;18500;43.618;1.474;2024-01-16T03:47:51;11.70;99.90
31975;DHT22;18500;43.618;1.474;2024-01-16T03:50:17;11.70;99.90
31975;DHT22;18500;43.618;1.474;2024-01-16T03:52:42;11.70;99.90
31975;DHT22;18500;43.618;1.474;2024-01-16T03:55:08;11.70;99.90
31975;DHT22;18500;43.618;1.474;2024-01-16T03:57:34;11.70;99.90
31975;DHT22;18500;43.618;1.474;2024-01-16T04:00:00;11.60;99.90
31975;DHT22;18500;43.618;1.474;2024-01-16T04:02:26;11.70;99.90
31975;DHT22;18500;43.618;1.474;2024-01-16T04:04:51;11.60;99.90
31975;DHT22;18500;43.618;1.474;2024-01-16T04:07:17;11.60;99.90
31975;DHT22;18500;43.618;1.474;2024-01-16T04:09:43;11.60;99.90
31975;DHT22;18500;43.618;1.474;2024-01-16T04:12:09;11.60;99.90
31975;DHT22;18500;43.618;1.474;2024-01-16T04:14:34;11.60;99.90
31975;DHT22;18500;43.618;1.474;2024-01-16T04:17:01;11.60;99.90
31975;DHT22;18500;43.618;1.474;2024-01-16T04:19:27;11.60;99.90
31975;DHT22;18500;43.618;1.474;2024-01-16T04:21:53;11.60;99.90
31975;DHT22;18500;43.618;1.474;2024-01-16T04:24:19;11.50;99.90
31975;DHT22;18500;43.618;1.474;2024-01-16T04:26:44;11.40;99.90
31975;DHT22;18500;43.618;1.474;2024-01-16T04:29:10;11.40;99.90
31975;DHT22;18500;43.618;1.474;2024-01-16T04:31:40;11.40;99.90
31975;DHT22;18500;43.618;1.474;2024-01-16T04:34:09;11.40;99.90
31975;DHT22;18500;43.618;1.474;2024-01-16T04:36:34;11.40;99.90
31975;DHT22;18500;43.618;1.474;2024-01-16T04:39:00;11.40;99.90
31975;DHT22;18500;43.618;1.474;2024-01-16T04:41:26;11.40;99.90
31975;DHT22;18500;43.618;1.474;2024-01-16T04:43:51;11.40;99.90
31975;DHT22;18500;43.618;1.474;2024-01-16T04:46:17;11.40;99.90
31975;DHT22;18500;43.618;1.474;2024-01-16T04:48:42;11.40;99.90
31975;DHT22;18500;43.618;1.474;2024-01-16T04:51:08;11.40;99.90
31975;DHT22;18500;43.618;1.474;2024-01-16T04:53:34;11.40;99.90
31975;DHT22;18500;43.618;1.474;2024-01-16T04:55:59;11.50;99.90
31975;DHT22;18500;43.618;1.474;2024-01-16T04:58:25;11.30;99.90
31975;DHT22;18500;43.618;1.474;2024-01-16T05:00:51;11.30;99.90
31975;DHT22;18500;43.618;1.474;2024-01-16T05:03:16;11.20;99.90
31975;DHT22;18500;43.618;1.474;2024-01-16T05:05:42;11.00;99.90
31975;DHT22;18500;43.618;1.474;2024-01-16T05:08:08;11.00;99.90
31975;DHT22;18500;43.618;1.474;2024-01-16T05:10:34;11.10;99.90
31975;DHT22;18500;43.618;1.474;2024-01-16T05:13:00;11.20;99.90
31975;DHT22;18500;43.618;1.474;2024-01-16T05:15:26;11.10;99.90
31975;DHT22;18500;43.618;1.474;2024-01-16T05:17:52;11.20;99.90
31975;DHT22;18500;43.618;1.474;2024-01-16T05:20:18;11.50;99.90
31975;DHT22;18500;43.618;1.474;2024-01-16T05:22:44;11.30;99.90
31975;DHT22;18500;43.618;1.474;2024-01-16T05:25:10;11.20;99.90
31975;DHT22;18500;43.618;1.474;2024-01-16T05:27:36;11.20;99.90
31975;DHT22;18500;43.618;1.474;2024-01-16T05:30:01;11.30;99.90
31975;DHT22;18500;43.618;1.474;2024-01-16T05:32:27;11.30;99.90
31975;DHT22;18500;43.618;1.474;2024-01-16T05:34:53;11.20;99.90
31975;DHT22;18500;43.618;1.474;2024-01-16T05:37:21;11.30;99.90
31975;DHT22;18500;43.618;1.474;2024-01-16T05:39:47;11.40;99.90
31975;DHT22;18500;43.618;1.474;2024-01-16T05:42:13;11.50;99.90
31975;DHT22;18500;43.618;1.474;2024-01-16T05:44:38;11.50;43.60
31975;DHT22;18500;43.618;1.474;2024-01-16T05:47:04;11.40;1.00
31975;DHT22;18500;43.618;1.474;2024-01-16T05:49:31;11.40;1.00
31975;DHT22;18500;43.618;1.474;2024-01-16T05:51:57;11.40;1.00
31975;DHT22;18500;43.618;1.474;2024-01-16T05:54:22;11.40;1.00
31975;DHT22;18500;43.618;1.474;2024-01-16T05:56:48;11.30;99.90
31975;DHT22;18500;43.618;1.474;2024-01-16T05:59:15;11.30;99.90
31975;DHT22;18500;43.618;1.474;2024-01-16T06:01:41;11.20;99.90
31975;DHT22;18500;43.618;1.474;2024-01-16T06:04:07;11.20;99.90
31975;DHT22;18500;43.618;1.474;2024-01-16T06:06:32;11.20;9.50
31975;DHT22;18500;43.618;1.474;2024-01-16T06:08:58;11.20;23.30
31975;DHT22;18500;43.618;1.474;2024-01-16T06:11:32;11.20;42.50
31975;DHT22;18500;43.618;1.474;2024-01-16T06:13:58;11.10;33.80
31975;DHT22;18500;43.618;1.474;2024-01-16T06:16:24;11.10;46.50
31975;DHT22;18500;43.618;1.474;2024-01-16T06:18:50;11.10;59.60
31975;DHT22;18500;43.618;1.474;2024-01-16T06:21:16;11.10;53.40
31975;DHT22;18500;43.618;1.474;2024-01-16T06:23:43;11.10;21.80
31975;DHT22;18500;43.618;1.474;2024-01-16T06:26:09;11.00;7.60
31975;DHT22;18500;43.618;1.474;2024-01-16T06:28:35;11.00;1.00
31975;DHT22;18500;43.618;1.474;2024-01-16T06:31:00;10.90;1.00
31975;DHT22;18500;43.618;1.474;2024-01-16T06:33:26;10.90;1.00
31975;DHT22;18500;43.618;1.474;2024-01-16T06:35:54;10.90;1.00
31975;DHT22;18500;43.618;1.474;2024-01-16T06:38:20;10.90;99.90
31975;DHT22;18500;43.618;1.474;2024-01-16T06:40:46;10.80;99.90
31975;DHT22;18500;43.618;1.474;2024-01-16T06:43:12;10.90;99.90
31975;DHT22;18500;43.618;1.474;2024-01-16T06:45:40;10.80;99.90
31975;DHT22;18500;43.618;1.474;2024-01-16T06:48:05;10.80;99.70
31975;DHT22;18500;43.618;1.474;2024-01-16T06:50:31;10.80;43.90
31975;DHT22;18500;43.618;1.474;2024-01-16T06:52:57;10.80;1.00
31975;DHT22;18500;43.618;1.474;2024-01-16T06:55:22;10.70;1.00
31975;DHT22;18500;43.618;1.474;2024-01-16T06:57:48;10.70;1.00
31975;DHT22;18500;43.618;1.474;2024-01-16T07:00:14;10.70;1.00
31975;DHT22;18500;43.618;1.474;2024-01-16T07:02:40;10.80;1.00
31975;DHT22;18500;43.618;1.474;2024-01-16T07:05:09;10.80;99.90
31975;DHT22;18500;43.618;1.474;2024-01-16T07:07:35;10.80;99.90
31975;DHT22;18500;43.618;1.474;2024-01-16T07:10:00;10.70;99.90
31975;DHT22;18500;43.618;1.474;2024-01-16T07:12:26;10.50;99.90
31975;DHT22;18500;43.618;1.474;2024-01-16T07:14:52;10.50;94.60
31975;DHT22;18500;43.618;1.474;2024-01-16T07:17:17;10.50;20.50
31975;DHT22;18500;43.618;1.474;2024-01-16T07:19:43;10.60;1.00
31975;DHT22;18500;43.618;1.474;2024-01-16T07:22:09;10.70;1.00
31975;DHT22;18500;43.618;1.474;2024-01-16T07:24:34;10.70;1.00
31975;DHT22;18500;43.618;1.474;2024-01-16T07:27:00;10.60;1.00
31975;DHT22;18500;43.618;1.474;2024-01-16T07:29:26;10.60;1.00
31975;DHT22;18500;43.618;1.474;2024-01-16T07:31:51;10.60;99.90
31975;DHT22;18500;43.618;1.474;2024-01-16T07:34:18;10.60;99.90
31975;DHT22;18500;43.618;1.474;2024-01-16T07:36:47;10.60;99.90
31975;DHT22;18500;43.618;1.474;2024-01-16T07:39:13;10.50;99.90
31975;DHT22;18500;43.618;1.474;2024-01-16T07:41:40;10.40;99.90
31975;DHT22;18500;43.618;1.474;2024-01-16T07:44:05;10.40;99.90
31975;DHT22;18500;43.618;1.474;2024-01-16T07:46:31;10.40;99.90
31975;DHT22;18500;43.618;1.474;2024-01-16T07:48:57;10.30;99.90
31975;DHT22;18500;43.618;1.474;2024-01-16T07:51:23;10.30;99.90
31975;DHT22;18500;43.618;1.474;2024-01-16T07:53:59;10.40;99.90
31975;DHT22;18500;43.618;1.474;2024-01-16T07:56:29;10.50;99.90
31975;DHT22;18500;43.618;1.474;2024-01-16T07:58:54;10.60;99.90
31975;DHT22;18500;43.618;1.474;2024-01-16T08:01:20;10.60;99.90
31975;DHT22;18500;43.618;1.474;2024-01-16T08:03:46;10.70;99.90
31975;DHT22;18500;43.618;1.474;2024-01-16T08:06:13;10.80;99.90
31975;DHT22;18500;43.618;1.474;2024-01-16T08:08:38;10.90;99.90
31975;DHT22;18500;43.618;1.474;2024-01-16T08:11:04;11.00;99.90
31975;DHT22;18500;43.618;1.474;2024-01-16T08:13:29;11.00;1.00
31975;DHT22;18500;43.618;1.474;2024-01-16T08:15:55;11.10;1.00
31975;DHT22;18500;43.618;1.474;2024-01-16T08:18:21;11.10;1.00
31975;DHT22;18500;43.618;1.474;2024-01-16T08:20:47;11.10;1.00
31975;DHT22;18500;43.618;1.474;2024-01-16T08:23:12;11.10;1.00
31975;DHT22;18500;43.618;1.474;2024-01-16T08:25:38;11.10;99.90
31975;DHT22;18500;43.618;1.474;2024-01-16T08:28:04;11.20;99.90
31975;DHT22;18500;43.618;1.474;2024-01-16T08:30:30;11.30;99.90
31975;DHT22;18500;43.618;1.474;2024-01-16T08:32:56;11.30;99.90
31975;DHT22;18500;43.618;1.474;2024-01-16T08:35:21;11.30;99.90
31975;DHT22;18500;43.618;1.474;2024-01-16T08:37:48;11.30;99.90
31975;DHT22;18500;43.618;1.474;2024-01-16T08:40:13;11.30;99.90
31975;DHT22;18500;43.618;1.474;2024-01-16T08:42:39;11.30;99.90
31975;DHT22;18500;43.618;1.474;2024-01-16T08:45:05;11.30;99.90
31975;DHT22;18500;43.618;1.474;2024-01-16T08:47:31;11.30;99.90
31975;DHT22;18500;43.618;1.474;2024-01-16T08:49:57;11.10;99.90
31975;DHT22;18500;43.618;1.474;2024-01-16T08:52:23;11.20;99.90
31975;DHT22;18500;43.618;1.474;2024-01-16T08:54:49;11.10;99.90
31975;DHT22;18500;43.618;1.474;2024-01-16T08:57:15;11.20;99.90
31975;DHT22;18500;43.618;1.474;2024-01-16T08:59:41;11.20;99.90
31975;DHT22;18500;43.618;1.474;2024-01-16T09:02:07;11.30;99.90
31975;DHT22;18500;43.618;1.474;2024-01-16T09:04:32;11.60;99.90
31975;DHT22;18500;43.618;1.474;2024-01-16T09:06:59;11.80;99.90
31975;DHT22;18500;43.618;1.474;2024-01-16T09:09:25;12.00;99.90
31975;DHT22;18500;43.618;1.474;2024-01-16T09:11:50;12.10;99.90
31975;DHT22;18500;43.618;1.474;2024-01-16T09:14:16;12.20;99.90
31975;DHT22;18500;43.618;1.474;2024-01-16T09:16:42;12.20;99.90
31975;DHT22;18500;43.618;1.474;2024-01-16T09:19:08;12.20;99.90
31975;DHT22;18500;43.618;1.474;2024-01-16T09:21:35;12.30;95.60
31975;DHT22;18500;43.618;1.474;2024-01-16T09:24:00;12.20;87.60
31975;DHT22;18500;43.618;1.474;2024-01-16T09:26:26;12.20;76.10
31975;DHT22;18500;43.618;1.474;2024-01-16T09:28:51;12.10;64.40
31975;DHT22;18500;43.618;1.474;2024-01-16T09:31:17;12.10;55.30
31975;DHT22;18500;43.618;1.474;2024-01-16T09:33:43;12.30;50.90
31975;DHT22;18500;43.618;1.474;2024-01-16T09:36:09;12.30;63.10
31975;DHT22;18500;43.618;1.474;2024-01-16T09:38:34;12.40;35.20
31975;DHT22;18500;43.618;1.474;2024-01-16T09:41:00;12.50;33.20
31975;DHT22;18500;43.618;1.474;2024-01-16T09:43:28;12.50;26.70
31975;DHT22;18500;43.618;1.474;2024-01-16T09:45:56;12.60;24.40
31975;DHT22;18500;43.618;1.474;2024-01-16T09:48:22;12.50;23.80
31975;DHT22;18500;43.618;1.474;2024-01-16T09:50:47;12.60;21.10
31975;DHT22;18500;43.618;1.474;2024-01-16T09:53:13;12.60;16.80
31975;DHT22;18500;43.618;1.474;2024-01-16T09:55:39;12.50;14.90
31975;DHT22;18500;43.618;1.474;2024-01-16T09:58:05;12.50;14.20
31975;DHT22;18500;43.618;1.474;2024-01-16T10:00:35;12.50;7.30
31975;DHT22;18500;43.618;1.474;2024-01-16T10:03:01;12.50;5.40
31975;DHT22;18500;43.618;1.474;2024-01-16T10:05:29;12.60;4.80
31975;DHT22;18500;43.618;1.474;2024-01-16T10:07:56;12.80;4.20
31975;DHT22;18500;43.618;1.474;2024-01-16T10:10:23;12.80;1.90
31975;DHT22;18500;43.618;1.474;2024-01-16T10:12:49;13.00;1.00
31975;DHT22;18500;43.618;1.474;2024-01-16T10:15:16;13.00;1.00
31975;DHT22;18500;43.618;1.474;2024-01-16T10:17:42;13.00;1.00
31975;DHT22;18500;43.618;1.474;2024-01-16T10:20:11;13.00;1.00
31975;DHT22;18500;43.618;1.474;2024-01-16T10:22:52;12.90;1.00
31975;DHT22;18500;43.618;1.474;2024-01-16T10:25:18;13.10;1.00
31975;DHT22;18500;43.618;1.474;2024-01-16T10:27:46;13.10;1.00
31975;DHT22;18500;43.618;1.474;2024-01-16T10:30:12;13.10;1.00
31975;DHT22;18500;43.618;1.474;2024-01-16T10:32:40;13.30;1.00
31975;DHT22;18500;43.618;1.474;2024-01-16T10:35:10;13.40;1.00
31975;DHT22;18500;43.618;1.474;2024-01-16T10:37:53;13.40;1.00
31975;DHT22;18500;43.618;1.474;2024-01-16T10:40:20;13.30;1.00
31975;DHT22;18500;43.618;1.474;2024-01-16T10:45:25;13.20;1.00
31975;DHT22;18500;43.618;1.474;2024-01-16T10:48:06;13.30;1.00
31975;DHT22;18500;43.618;1.474;2024-01-16T10:50:33;13.50;1.00
31975;DHT22;18500;43.618;1.474;2024-01-16T10:53:03;13.50;1.00
31975;DHT22;18500;43.618;1.474;2024-01-16T10:55:29;13.50;1.00
31975;DHT22;18500;43.618;1.474;2024-01-16T10:57:56;13.50;1.00
31975;DHT22;18500;43.618;1.474;2024-01-16T11:00:24;13.30;1.00
31975;DHT22;18500;43.618;1.474;2024-01-16T11:03:04;13.20;1.00
31975;DHT22;18500;43.618;1.474;2024-01-16T11:05:32;13.30;1.00
31975;DHT22;18500;43.618;1.474;2024-01-16T11:08:01;13.40;1.00
31975;DHT22;18500;43.618;1.474;2024-01-16T11:10:30;13.30;1.00
31975;DHT22;18500;43.618;1.474;2024-01-16T11:13:00;13.40;1.00
31975;DHT22;18500;43.618;1.474;2024-01-16T11:15:27;13.30;1.00
31975;DHT22;18500;43.618;1.474;2024-01-16T11:17:55;13.30;1.00
31975;DHT22;18500;43.618;1.474;2024-01-16T11:20:21;13.30;1.00
31975;DHT22;18500;43.618;1.474;2024-01-16T11:22:48;13.40;1.00
31975;DHT22;18500;43.618;1.474;2024-01-16T11:25:16;13.50;1.00
31975;DHT22;18500;43.618;1.474;2024-01-16T11:27:43;13.50;1.00
31975;DHT22;18500;43.618;1.474;2024-01-16T11:30:10;13.70;1.00
31975;DHT22;18500;43.618;1.474;2024-01-16T11:32:40;13.60;1.00
31975;DHT22;18500;43.618;1.474;2024-01-16T11:35:09;13.60;1.00
31975;DHT22;18500;43.618;1.474;2024-01-16T11:37:35;13.50;1.00
31975;DHT22;18500;43.618;1.474;2024-01-16T11:42:47;14.00;1.00
31975;DHT22;18500;43.618;1.474;2024-01-16T11:45:48;14.10;1.00
31975;DHT22;18500;43.618;1.474;2024-01-16T11:48:18;14.50;1.00
31975;DHT22;18500;43.618;1.474;2024-01-16T11:50:45;14.50;1.00
31975;DHT22;18500;43.618;1.474;2024-01-16T11:53:11;14.50;1.00
31975;DHT22;18500;43.618;1.474;2024-01-16T12:01:46;14.10;1.00
31975;DHT22;18500;43.618;1.474;2024-01-16T12:04:15;14.00;1.00
31975;DHT22;18500;43.618;1.474;2024-01-16T12:06:43;14.10;1.00
31975;DHT22;18500;43.618;1.474;2024-01-16T12:09:12;14.00;1.00
31975;DHT22;18500;43.618;1.474;2024-01-16T12:11:39;14.00;1.00
31975;DHT22;18500;43.618;1.474;2024-01-16T12:14:05;14.00;1.00
31975;DHT22;18500;43.618;1.474;2024-01-16T12:16:31;14.20;1.00
31975;DHT22;18500;43.618;1.474;2024-01-16T12:19:09;14.30;1.00
31975;DHT22;18500;43.618;1.474;2024-01-16T12:21:39;14.50;1.00
31975;DHT22;18500;43.618;1.474;2024-01-16T12:24:06;14.50;1.00
31975;DHT22;18500;43.618;1.474;2024-01-16T12:26:32;14.50;1.00
31975;DHT22;18500;43.618;1.474;2024-01-16T12:28:58;14.20;1.00
31975;DHT22;18500;43.618;1.474;2024-01-16T12:31:24;14.20;1.00
31975;DHT22;18500;43.618;1.474;2024-01-16T12:33:51;14.30;1.00
31975;DHT22;18500;43.618;1.474;2024-01-16T12:36:17;14.40;1.00
31975;DHT22;18500;43.618;1.474;2024-01-16T12:38:43;14.60;1.00
31975;DHT22;18500;43.618;1.474;2024-01-16T12:41:10;14.70;1.00
31975;DHT22;18500;43.618;1.474;2024-01-16T12:43:36;14.50;1.00
31975;DHT22;18500;43.618;1.474;2024-01-16T12:46:05;14.50;1.00
31975;DHT22;18500;43.618;1.474;2024-01-16T12:48:32;14.30;1.00
31975;DHT22;18500;43.618;1.474;2024-01-16T12:51:01;14.40;1.00
31975;DHT22;18500;43.618;1.474;2024-01-16T12:53:27;14.50;1.00
31975;DHT22;18500;43.618;1.474;2024-01-16T12:56:00;14.50;1.00
31975;DHT22;18500;43.618;1.474;2024-01-16T12:58:35;14.50;1.00
31975;DHT22;18500;43.618;1.474;2024-01-16T13:01:24;14.50;1.00
31975;DHT22;18500;43.618;1.474;2024-01-16T13:03:50;14.50;1.00
31975;DHT22;18500;43.618;1.474;2024-01-16T13:06:20;14.80;1.00
31975;DHT22;18500;43.618;1.474;2024-01-16T13:08:50;15.10;1.00
31975;DHT22;18500;43.618;1.474;2024-01-16T13:11:16;15.10;1.00
31975;DHT22;18500;43.618;1.474;2024-01-16T13:13:48;15.20;1.00
31975;DHT22;18500;43.618;1.474;2024-01-16T13:16:14;15.10;1.00
31975;DHT22;18500;43.618;1.474;2024-01-16T13:18:41;14.80;1.00
31975;DHT22;18500;43.618;1.474;2024-01-16T13:21:07;14.70;1.00
31975;DHT22;18500;43.618;1.474;2024-01-16T13:23:32;14.60;1.00
31975;DHT22;18500;43.618;1.474;2024-01-16T13:25:58;14.50;1.00
31975;DHT22;18500;43.618;1.474;2024-01-16T13:28:30;14.50;1.00
31975;DHT22;18500;43.618;1.474;2024-01-16T13:30:56;14.50;1.00
31975;DHT22;18500;43.618;1.474;2024-01-16T13:33:23;14.50;1.00
31975;DHT22;18500;43.618;1.474;2024-01-16T13:35:52;14.60;1.00
31975;DHT22;18500;43.618;1.474;2024-01-16T13:38:20;14.70;1.00
31975;DHT22;18500;43.618;1.474;2024-01-16T13:40:46;14.90;1.00
31975;DHT22;18500;43.618;1.474;2024-01-16T13:43:13;14.90;1.00
31975;DHT22;18500;43.618;1.474;2024-01-16T13:45:38;15.20;1.00
31975;DHT22;18500;43.618;1.474;2024-01-16T13:48:05;15.40;1.00
31975;DHT22;18500;43.618;1.474;2024-01-16T13:50:32;15.40;1.00
31975;DHT22;18500;43.618;1.474;2024-01-16T13:52:59;15.50;1.00
31975;DHT22;18500;43.618;1.474;2024-01-16T13:55:25;15.50;1.00
31975;DHT22;18500;43.618;1.474;2024-01-16T13:57:50;15.00;1.00
31975;DHT22;18500;43.618;1.474;2024-01-16T14:00:16;14.90;1.00
31975;DHT22;18500;43.618;1.474;2024-01-16T14:02:44;15.00;1.00
31975;DHT22;18500;43.618;1.474;2024-01-16T14:05:11;14.90;1.00
31975;DHT22;18500;43.618;1.474;2024-01-16T14:07:38;14.80;1.00
31975;DHT22;18500;43.618;1.474;2024-01-16T14:10:14;14.90;1.00
31975;DHT22;18500;43.618;1.474;2024-01-16T14:12:41;14.80;1.00
31975;DHT22;18500;43.618;1.474;2024-01-16T14:15:09;14.70;1.00
31975;DHT22;18500;43.618;1.474;2024-01-16T14:17:52;14.70;1.00
31975;DHT22;18500;43.618;1.474;2024-01-16T14:20:19;14.60;1.00
31975;DHT22;18500;43.618;1.474;2024-01-16T14:22:48;14.60;1.00
31975;DHT22;18500;43.618;1.474;2024-01-16T14:25:14;14.60;1.00
31975;DHT22;18500;43.618;1.474;2024-01-16T14:27:43;14.60;1.00
31975;DHT22;18500;43.618;1.474;2024-01-16T14:30:13;14.60;1.00
31975;DHT22;18500;43.618;1.474;2024-01-16T14:32:45;14.70;1.00
31975;DHT22;18500;43.618;1.474;2024-01-16T14:35:13;14.70;1.00
31975;DHT22;18500;43.618;1.474;2024-01-16T14:37:39;14.70;1.00
31975;DHT22;18500;43.618;1.474;2024-01-16T14:40:06;14.60;1.00
31975;DHT22;18500;43.618;1.474;2024-01-16T14:42:38;14.60;1.00
31975;DHT22;18500;43.618;1.474;2024-01-16T14:45:04;14.70;1.00
31975;DHT22;18500;43.618;1.474;2024-01-16T14:47:31;14.80;1.00
31975;DHT22;18500;43.618;1.474;2024-01-16T14:49:56;14.90;1.00
31975;DHT22;18500;43.618;1.474;2024-01-16T14:52:23;14.90;1.00
31975;DHT22;18500;43.618;1.474;2024-01-16T14:54:49;14.80;1.00
31975;DHT22;18500;43.618;1.474;2024-01-16T14:57:15;14.80;1.00
31975;DHT22;18500;43.618;1.474;2024-01-16T14:59:41;14.70;1.00
31975;DHT22;18500;43.618;1.474;2024-01-16T15:02:07;14.70;1.00
31975;DHT22;18500;43.618;1.474;2024-01-16T15:04:40;14.60;1.00
31975;DHT22;18500;43.618;1.474;2024-01-16T15:07:06;14.40;1.00
31975;DHT22;18500;43.618;1.474;2024-01-16T15:09:33;14.30;1.00
31975;DHT22;18500;43.618;1.474;2024-01-16T15:12:01;14.30;1.00
31975;DHT22;18500;43.618;1.474;2024-01-16T15:14:26;14.10;1.00
31975;DHT22;18500;43.618;1.474;2024-01-16T15:16:52;14.00;1.00
31975;DHT22;18500;43.618;1.474;2024-01-16T15:19:18;13.90;1.00
31975;DHT22;18500;43.618;1.474;2024-01-16T15:21:43;13.90;1.00
31975;DHT22;18500;43.618;1.474;2024-01-16T15:24:09;13.90;1.00
31975;DHT22;18500;43.618;1.474;2024-01-16T15:26:38;13.80;1.00
31975;DHT22;18500;43.618;1.474;2024-01-16T15:29:04;13.70;1.00
31975;DHT22;18500;43.618;1.474;2024-01-16T15:31:31;13.50;1.00
31975;DHT22;18500;43.618;1.474;2024-01-16T15:33:57;13.40;1.00
31975;DHT22;18500;43.618;1.474;2024-01-16T15:36:23;13.40;1.00
31975;DHT22;18500;43.618;1.474;2024-01-16T15:38:48;13.30;1.00
31975;DHT22;18500;43.618;1.474;2024-01-16T15:41:14;13.30;1.00
31975;DHT22;18500;43.618;1.474;2024-01-16T15:43:39;13.10;1.00
31975;DHT22;18500;43.618;1.474;2024-01-16T15:46:05;12.90;1.00
31975;DHT22;18500;43.618;1.474;2024-01-16T15:48:31;12.80;1.00